createdAt,value
2022-08-08T00:00:50.074Z,22.25
2022-08-08T00:03:33.141Z,22.23
2022-08-08T00:07:12.975Z,22.19
2022-08-08T00:11:00.103Z,22.17
2022-08-08T00:15:00.362Z,22.15
2022-08-08T00:18:40.186Z,22.19
2022-08-08T00:22:10.596Z,22.19
2022-08-08T00:25:50.887Z,22.21
2022-08-08T00:29:46.039Z,22.19
2022-08-08T00:33:35.815Z,22.20
2022-08-08T00:37:46.874Z,22.17
2022-08-08T00:42:08.943Z,22.17
2022-08-08T00:45:58.103Z,22.19
2022-08-08T00:49:35.123Z,22.18
2022-08-08T00:53:15.518Z,22.20
2022-08-08T00:57:04.391Z,22.22
2022-08-08T01:00:34.525Z,22.24
2022-08-08T01:04:16.114Z,22.25
2022-08-08T01:08:30.198Z,22.26
2022-08-08T01:11:52.096Z,22.35
2022-08-08T01:15:37.189Z,22.36
2022-08-08T01:19:13.583Z,22.34
2022-08-08T01:22:56.176Z,22.29
2022-08-08T01:26:49.239Z,22.34
2022-08-08T01:30:35.135Z,22.33
2022-08-08T01:34:28.789Z,22.36
2022-08-08T01:38:16.189Z,22.38
2022-08-08T01:41:50.164Z,22.43
2022-08-08T01:45:37.620Z,22.45
2022-08-08T01:49:37.708Z,22.41
2022-08-08T01:54:18.699Z,22.26
2022-08-08T01:57:10.642Z,22.12
2022-08-08T02:00:50.216Z,22.04
2022-08-08T02:05:15.188Z,21.93
2022-08-08T02:08:56.197Z,21.88
2022-08-08T02:12:48.130Z,21.88
2022-08-08T02:16:35.132Z,21.86
2022-08-08T02:21:03.047Z,21.85
2022-08-08T02:24:14.890Z,21.87
2022-08-08T02:27:48.211Z,21.87
2022-08-08T02:31:59.654Z,21.81
2022-08-08T02:36:05.265Z,21.73
2022-08-08T02:40:00.165Z,21.76
2022-08-08T02:44:37.408Z,21.74
2022-08-08T02:48:08.184Z,21.69
2022-08-08T02:52:32.711Z,21.63
2022-08-08T02:56:11.261Z,21.57
2022-08-08T02:59:57.688Z,21.52
2022-08-08T03:05:04.944Z,21.56
2022-08-08T03:08:24.181Z,21.51
2022-08-08T03:12:13.959Z,21.56
2022-08-08T03:15:58.109Z,21.56
2022-08-08T03:19:50.854Z,21.50
2022-08-08T03:23:17.597Z,21.54
2022-08-08T03:26:49.169Z,21.54
2022-08-08T03:30:19.885Z,21.47
2022-08-08T03:33:58.138Z,21.42
2022-08-08T03:38:52.944Z,21.48
2022-08-08T03:41:43.108Z,21.63
2022-08-08T03:44:52.254Z,21.58
2022-08-08T03:48:21.151Z,21.58
2022-08-08T03:51:57.215Z,21.63
2022-08-08T03:55:56.536Z,21.67
2022-08-08T03:59:07.179Z,21.62
2022-08-08T04:02:51.734Z,21.67
2022-08-08T04:06:19.183Z,21.66
2022-08-08T04:09:58.925Z,21.60
2022-08-08T04:13:23.182Z,21.59
2022-08-08T04:16:49.160Z,21.61
2022-08-08T04:20:10.208Z,21.70
2022-08-08T04:24:00.421Z,21.88
2022-08-08T04:27:19.445Z,21.93
2022-08-08T04:30:48.135Z,22.01
2022-08-08T04:34:09.208Z,22.08
2022-08-08T04:37:32.289Z,22.25
2022-08-08T04:41:01.229Z,22.31
2022-08-08T04:44:22.266Z,22.38
2022-08-08T04:47:47.234Z,22.64
2022-08-08T04:51:10.236Z,22.97
2022-08-08T04:54:42.133Z,23.12
2022-08-08T04:58:03.223Z,23.18
2022-08-08T05:01:24.238Z,23.25
2022-08-08T05:04:56.217Z,23.30
2022-08-08T05:08:22.199Z,23.30
2022-08-08T05:11:57.068Z,23.44
2022-08-08T05:15:19.191Z,23.46
2022-08-08T05:18:46.257Z,23.34
2022-08-08T05:22:07.262Z,23.24
2022-08-08T05:25:41.560Z,23.36
2022-08-08T05:29:06.463Z,23.62
2022-08-08T05:32:30.004Z,23.64
2022-08-08T05:35:57.231Z,23.57
2022-08-08T05:39:20.313Z,23.67
2022-08-08T05:42:49.112Z,23.80
2022-08-08T05:46:08.264Z,23.90
2022-08-08T05:49:31.155Z,24.00
2022-08-08T05:52:53.324Z,24.23
2022-08-08T05:56:17.396Z,24.53
2022-08-08T05:59:59.427Z,24.74
2022-08-08T06:03:31.272Z,24.80
2022-08-08T06:06:56.357Z,25.14
2022-08-08T06:10:24.745Z,25.35
2022-08-08T06:13:47.276Z,25.49
2022-08-08T06:17:19.590Z,25.64
2022-08-08T06:20:43.216Z,25.83
2022-08-08T06:24:13.735Z,25.90
2022-08-08T06:28:00.256Z,25.94
2022-08-08T06:31:32.191Z,25.79
2022-08-08T06:36:00.768Z,25.64
2022-08-08T06:38:57.238Z,25.56
2022-08-08T06:42:46.293Z,25.72
2022-08-08T06:46:14.320Z,25.95
2022-08-08T06:49:56.135Z,25.92
2022-08-08T06:53:20.585Z,26.01
2022-08-08T06:56:47.224Z,25.82
2022-08-08T07:00:14.243Z,25.66
2022-08-08T07:04:39.618Z,25.49
2022-08-08T07:07:48.285Z,25.45
2022-08-08T07:11:22.045Z,25.62
2022-08-08T07:15:01.279Z,25.62
2022-08-08T07:18:36.344Z,25.67
2022-08-08T07:22:18.443Z,25.58
2022-08-08T07:25:44.151Z,25.48
2022-08-08T07:29:20.450Z,25.44
2022-08-08T07:33:02.309Z,25.22
2022-08-08T07:36:24.236Z,25.25
2022-08-08T07:39:57.829Z,25.27
2022-08-08T07:43:32.372Z,25.18
2022-08-08T07:46:59.275Z,25.46
2022-08-08T07:50:22.115Z,25.43
2022-08-08T07:54:08.275Z,25.55
2022-08-08T07:57:29.585Z,25.51
2022-08-08T08:01:00.362Z,25.44
2022-08-08T08:04:30.286Z,25.51
2022-08-08T08:07:56.273Z,25.69
2022-08-08T08:11:34.131Z,26.11
2022-08-08T08:15:23.212Z,26.25
2022-08-08T08:19:15.000Z,26.36
2022-08-08T08:22:36.272Z,26.84
2022-08-08T08:25:59.986Z,26.86
2022-08-08T08:29:22.328Z,26.93
2022-08-08T08:32:51.444Z,27.11
2022-08-08T08:36:26.341Z,27.31
2022-08-08T08:40:01.320Z,27.54
2022-08-08T08:43:28.886Z,27.63
2022-08-08T08:46:58.560Z,27.78
2022-08-08T08:50:32.691Z,27.77
2022-08-08T08:54:04.257Z,27.92
2022-08-08T08:57:28.444Z,28.24
2022-08-08T09:01:09.318Z,28.57
2022-08-08T09:04:50.037Z,28.41
2022-08-08T09:08:20.731Z,28.35
2022-08-08T09:11:47.297Z,27.84
2022-08-08T09:15:41.617Z,27.56
2022-08-08T09:18:57.285Z,26.96
2022-08-08T09:22:26.622Z,26.52
2022-08-08T09:26:00.572Z,26.42
2022-08-08T09:29:33.328Z,26.38
2022-08-08T09:34:18.739Z,26.29
2022-08-08T09:37:57.429Z,25.88
2022-08-08T09:41:24.452Z,25.90
2022-08-08T09:45:15.590Z,26.45
2022-08-08T09:48:42.543Z,26.68
2022-08-08T09:52:13.217Z,26.59
2022-08-08T09:56:04.144Z,26.69
2022-08-08T10:00:01.995Z,26.60
2022-08-08T10:03:00.321Z,26.67
2022-08-08T10:06:32.853Z,26.96
2022-08-08T10:10:07.177Z,26.88
2022-08-08T10:13:58.310Z,26.67
2022-08-08T10:17:56.854Z,26.60
2022-08-08T10:21:03.487Z,26.37
2022-08-08T10:24:34.873Z,26.11
2022-08-08T10:27:57.647Z,26.33
2022-08-08T10:31:47.719Z,27.00
2022-08-08T10:36:07.520Z,27.50
2022-08-08T10:38:55.338Z,27.91
2022-08-08T10:42:18.328Z,28.08
2022-08-08T10:45:41.406Z,28.29
2022-08-08T10:49:03.354Z,28.31
2022-08-08T10:52:28.314Z,28.10
2022-08-08T10:55:52.312Z,28.24
2022-08-08T10:59:22.434Z,28.27
2022-08-08T11:02:47.412Z,28.04
2022-08-08T11:06:12.710Z,27.45
2022-08-08T11:09:36.353Z,26.93
2022-08-08T11:13:29.123Z,27.07
2022-08-08T11:16:42.360Z,26.88
2022-08-08T11:20:11.053Z,26.73
2022-08-08T11:23:35.340Z,26.92
2022-08-08T11:26:58.313Z,26.87
2022-08-08T11:30:24.910Z,27.03
2022-08-08T11:33:52.598Z,27.01
2022-08-08T11:38:35.386Z,27.04
2022-08-08T11:41:07.354Z,27.17
2022-08-08T11:44:29.039Z,27.21
2022-08-08T11:48:02.542Z,27.21
2022-08-08T11:51:38.940Z,27.19
2022-08-08T11:55:01.353Z,27.11
2022-08-08T11:58:24.328Z,26.76
2022-08-08T12:01:47.357Z,26.43
2022-08-08T12:05:23.321Z,26.59
2022-08-08T12:08:50.338Z,26.94
2022-08-08T12:12:14.434Z,27.17
2022-08-08T12:15:47.203Z,26.85
2022-08-08T12:19:09.385Z,26.58
2022-08-08T12:22:39.590Z,26.67
2022-08-08T12:26:06.418Z,26.68
2022-08-08T12:29:44.924Z,26.78
2022-08-08T12:33:09.367Z,26.67
2022-08-08T12:36:30.348Z,26.49
2022-08-08T12:40:01.684Z,26.32
2022-08-08T12:43:26.364Z,26.13
2022-08-08T12:46:56.092Z,26.64
2022-08-08T12:50:21.397Z,28.09
2022-08-08T12:53:47.356Z,29.53
2022-08-08T12:57:10.352Z,30.16
2022-08-08T13:00:41.357Z,30.09
2022-08-08T13:04:04.365Z,31.26
2022-08-08T13:08:04.177Z,31.78
2022-08-08T13:11:08.318Z,30.74
2022-08-08T13:14:29.358Z,30.35
2022-08-08T13:18:09.013Z,30.06
2022-08-08T13:21:48.911Z,28.85
2022-08-08T13:25:12.373Z,28.32
2022-08-08T13:28:42.831Z,28.06
2022-08-08T13:32:06.405Z,27.84
2022-08-08T13:35:38.995Z,28.22
2022-08-08T13:39:05.417Z,28.60
2022-08-08T13:42:30.727Z,28.57
2022-08-08T13:45:51.387Z,27.95
2022-08-08T13:50:34.588Z,27.56
2022-08-08T13:53:23.016Z,27.43
2022-08-08T13:57:00.152Z,27.84
2022-08-08T14:00:25.386Z,28.36
2022-08-08T14:03:54.353Z,28.90
2022-08-08T14:07:18.419Z,29.17
2022-08-08T14:10:40.404Z,28.76
2022-08-08T14:14:05.934Z,28.25
2022-08-08T14:17:58.256Z,27.75
2022-08-08T14:21:20.999Z,27.38
2022-08-08T14:24:47.405Z,27.23
2022-08-08T14:28:22.417Z,27.24
2022-08-08T14:32:09.212Z,27.52
2022-08-08T14:35:38.378Z,27.48
2022-08-08T14:38:59.377Z,27.30
2022-08-08T14:42:23.503Z,27.25
2022-08-08T14:46:02.379Z,27.06
2022-08-08T14:49:33.455Z,26.49
2022-08-08T14:52:59.465Z,26.01
2022-08-08T14:56:21.411Z,25.89
2022-08-08T14:59:51.172Z,26.30
2022-08-08T15:03:17.225Z,26.43
2022-08-08T15:06:42.539Z,26.11
2022-08-08T15:10:06.458Z,25.85
2022-08-08T15:13:40.277Z,25.73
2022-08-08T15:17:04.393Z,25.86
2022-08-08T15:20:30.428Z,25.94
2022-08-08T15:23:52.035Z,25.83
2022-08-08T15:28:03.459Z,25.83
2022-08-08T15:30:54.409Z,26.18
2022-08-08T15:34:28.810Z,26.24
2022-08-08T15:37:52.470Z,26.00
2022-08-08T15:41:14.423Z,26.24
2022-08-08T15:44:35.433Z,27.26
2022-08-08T15:48:15.377Z,27.37
2022-08-08T15:51:37.410Z,28.40
2022-08-08T15:55:00.456Z,28.37
2022-08-08T15:58:28.348Z,27.87
2022-08-08T16:01:59.741Z,27.07
2022-08-08T16:05:21.570Z,26.62
2022-08-08T16:09:02.378Z,26.49
2022-08-08T16:13:11.187Z,25.76
2022-08-08T16:16:12.833Z,25.20
2022-08-08T16:19:57.209Z,25.50
2022-08-08T16:23:21.415Z,26.33
2022-08-08T16:26:48.991Z,25.92
2022-08-08T16:30:13.442Z,25.23
2022-08-08T16:33:38.043Z,24.81
2022-08-08T16:36:59.382Z,24.50
2022-08-08T16:40:21.481Z,24.25
2022-08-08T16:43:50.991Z,23.96
2022-08-08T16:47:12.493Z,23.62
2022-08-08T16:50:33.437Z,23.28
2022-08-08T16:55:00.740Z,23.02
2022-08-08T16:58:14.695Z,22.75
2022-08-08T17:01:24.569Z,22.54
2022-08-08T17:04:45.423Z,22.44
2022-08-08T17:08:06.429Z,22.34
2022-08-08T17:11:48.558Z,22.24
2022-08-08T17:15:17.877Z,22.20
2022-08-08T17:18:41.428Z,22.09
2022-08-08T17:22:02.529Z,21.98
2022-08-08T17:25:16.798Z,21.90
2022-08-08T17:28:37.444Z,21.86
2022-08-08T17:31:58.445Z,21.87
2022-08-08T17:35:53.550Z,21.86
2022-08-08T17:39:05.545Z,21.79
2022-08-08T17:42:47.402Z,21.81
2022-08-08T17:46:11.451Z,21.80
2022-08-08T17:49:42.647Z,21.76
2022-08-08T17:53:05.444Z,21.64
2022-08-08T17:56:27.490Z,21.55
2022-08-08T17:59:51.757Z,21.46
2022-08-08T18:03:14.493Z,21.42
2022-08-08T18:06:43.029Z,21.33
2022-08-08T18:10:05.455Z,21.26
2022-08-08T18:13:26.463Z,21.21
2022-08-08T18:16:52.673Z,21.18
2022-08-08T18:20:43.960Z,21.11
2022-08-08T18:23:56.482Z,21.11
2022-08-08T18:27:18.117Z,21.11
2022-08-08T18:30:39.458Z,21.17
2022-08-08T18:34:24.935Z,21.25
2022-08-08T18:37:48.131Z,21.27
2022-08-08T18:41:09.559Z,21.27
2022-08-08T18:44:33.162Z,21.27
2022-08-08T18:47:56.489Z,21.31
2022-08-08T18:51:48.694Z,21.31
2022-08-08T18:55:00.779Z,21.25
2022-08-08T18:58:30.541Z,21.23
2022-08-08T19:02:26.090Z,21.23
2022-08-08T19:05:37.766Z,21.23
2022-08-08T19:09:13.273Z,21.15
2022-08-08T19:12:35.469Z,21.03
2022-08-08T19:16:00.494Z,20.92
2022-08-08T19:19:21.576Z,20.85
2022-08-08T19:22:44.651Z,20.84
2022-08-08T19:26:28.990Z,20.83
2022-08-08T19:29:47.548Z,20.81
2022-08-08T19:33:20.496Z,20.79
2022-08-08T19:36:46.532Z,20.77
2022-08-08T19:40:01.652Z,20.69
2022-08-08T19:43:15.602Z,20.63
2022-08-08T19:46:37.612Z,20.57
2022-08-08T19:49:59.962Z,20.53
2022-08-08T19:53:21.897Z,20.52
2022-08-08T19:57:04.322Z,20.57
2022-08-08T20:00:39.500Z,20.61
2022-08-08T20:04:03.386Z,20.57
2022-08-08T20:08:30.195Z,20.50
2022-08-08T20:10:59.517Z,20.40
2022-08-08T20:14:33.606Z,20.26
2022-08-08T20:17:59.529Z,20.15
2022-08-08T20:21:22.935Z,20.08
2022-08-08T20:24:45.516Z,20.12
2022-08-08T20:28:17.588Z,20.22
2022-08-08T20:32:02.755Z,20.30
2022-08-08T20:35:22.999Z,20.36
2022-08-08T20:38:53.545Z,20.28
2022-08-08T20:42:09.130Z,20.14
2022-08-08T20:45:55.120Z,20.01
2022-08-08T20:49:04.519Z,19.96
2022-08-08T20:52:25.516Z,19.95
2022-08-08T20:55:51.046Z,19.92
2022-08-08T20:59:12.547Z,19.90
2022-08-08T21:02:34.644Z,19.85
2022-08-08T21:05:59.473Z,19.79
2022-08-08T21:09:20.621Z,19.77
2022-08-08T21:12:46.286Z,19.73
2022-08-08T21:16:18.056Z,19.69
2022-08-08T21:19:45.145Z,19.74
2022-08-08T21:23:09.226Z,19.80
2022-08-08T21:26:30.513Z,19.88
2022-08-08T21:30:04.400Z,19.96
2022-08-08T21:33:28.559Z,20.11
2022-08-08T21:37:16.104Z,20.20
2022-08-08T21:40:39.542Z,20.27
2022-08-08T21:44:15.540Z,20.34
2022-08-08T21:48:21.656Z,20.45
2022-08-08T21:54:17.480Z,20.54
2022-08-08T21:55:03.543Z,20.56
2022-08-08T21:58:32.238Z,20.52
2022-08-08T22:02:02.429Z,20.33
2022-08-08T22:05:26.543Z,20.03
2022-08-08T22:08:50.598Z,19.82
2022-08-08T22:12:14.974Z,19.67
2022-08-08T22:15:37.571Z,19.65
2022-08-08T22:18:59.541Z,19.61
2022-08-08T22:22:30.258Z,19.09
2022-08-08T22:26:27.531Z,18.59
2022-08-08T22:29:58.788Z,18.25
2022-08-08T22:33:22.127Z,18.27
2022-08-08T22:37:00.567Z,18.28
2022-08-08T22:40:22.636Z,18.22
2022-08-08T22:44:02.711Z,18.17
2022-08-08T22:47:34.207Z,18.19
2022-08-08T22:51:00.532Z,18.24
2022-08-08T22:54:40.589Z,18.25
2022-08-08T22:58:11.565Z,18.23
2022-08-08T23:02:03.393Z,18.23
2022-08-08T23:05:14.781Z,18.25
2022-08-08T23:08:35.903Z,18.26
2022-08-08T23:12:29.130Z,18.32
2022-08-08T23:16:40.637Z,18.38
2022-08-08T23:19:27.593Z,18.46
2022-08-08T23:22:51.590Z,18.55
2022-08-08T23:26:13.627Z,18.58
2022-08-08T23:29:35.546Z,18.63
2022-08-08T23:32:57.559Z,18.70
2022-08-08T23:36:20.572Z,18.80
2022-08-08T23:39:55.183Z,18.86
2022-08-08T23:43:16.600Z,18.93
2022-08-08T23:49:01.627Z,18.99
2022-08-08T23:50:30.883Z,18.99
2022-08-08T23:54:39.546Z,19.02
2022-08-08T23:57:39.086Z,19.03
